Time;durP1;ratioP1;P1;durP2;ratioP2;P2;SDS_P1;SDS_P2;PMS_P1;PMS_P2;Temp;Humidity;BMP_temperature;BMP_pressure;BME280_temperature;BME280_humidity;BME280_pressure;Samples;Min_cycle;Max_cycle;Signal;HPM_P1;HPM_P2
2023/05/28 00:01:03;;;;;;;4.10;3.70;;;;;;;14.27;48.71;101906.06;4891310;28;97376;-52
2023/05/28 00:03:31;;;;;;;5.10;3.30;;;;;;;14.23;48.75;101908.28;4896622;28;97143;-52
2023/05/28 00:05:59;;;;;;;4.87;3.40;;;;;;;14.19;48.85;101913.28;4893036;28;97424;-50
2023/05/28 00:08:25;;;;;;;5.20;4.00;;;;;;;14.16;48.84;101922.56;4891610;28;97336;-52
2023/05/28 00:10:51;;;;;;;6.20;3.47;;;;;;;14.15;48.92;101918.28;4894090;28;97247;-52
2023/05/28 00:13:17;;;;;;;7.13;3.93;;;;;;;14.17;48.85;101918.56;4894400;28;97310;-51
2023/05/28 00:15:44;;;;;;;5.40;3.03;;;;;;;14.13;48.70;101920.78;4893811;28;97137;-51
2023/05/28 00:18:11;;;;;;;4.50;2.90;;;;;;;14.05;49.04;101919.66;4892264;28;97109;-52
2023/05/28 00:20:37;;;;;;;5.00;3.50;;;;;;;14.02;49.06;101923.41;4899040;28;97229;-51
2023/05/28 00:23:03;;;;;;;4.30;3.10;;;;;;;13.99;48.94;101918.84;4892980;28;96626;-50
2023/05/28 00:25:28;;;;;;;3.97;2.70;;;;;;;13.96;49.11;101923.31;4891898;28;97049;-52
2023/05/28 00:27:53;;;;;;;3.30;3.00;;;;;;;13.93;49.00;101915.25;4890629;28;98031;-52
2023/05/28 00:30:19;;;;;;;3.70;3.07;;;;;;;13.92;49.05;101913.72;4895476;28;97210;-51
2023/05/28 00:32:44;;;;;;;5.20;3.40;;;;;;;13.91;49.00;101906.66;4892687;28;96880;-52
2023/05/28 00:35:10;;;;;;;4.20;3.03;;;;;;;13.89;48.86;101903.63;4890650;28;97104;-52
2023/05/28 00:37:35;;;;;;;8.70;3.63;;;;;;;13.82;49.06;101904.81;4890789;28;98485;-51
2023/05/28 00:40:01;;;;;;;3.73;3.30;;;;;;;13.77;49.29;101901.97;4892093;28;100258;-52
2023/05/28 00:42:26;;;;;;;3.10;2.90;;;;;;;13.72;49.42;101900.63;4894419;28;97144;-50
2023/05/28 00:44:52;;;;;;;5.60;3.30;;;;;;;13.68;49.25;101899.31;4892066;28;97050;-51
2023/05/28 00:47:17;;;;;;;7.90;3.33;;;;;;;13.64;49.42;101899.53;4892477;28;96782;-51
2023/05/28 00:49:42;;;;;;;3.03;2.60;;;;;;;13.62;49.53;101899.25;4891257;28;98113;-52
2023/05/28 00:52:10;;;;;;;6.47;3.37;;;;;;;13.57;49.54;101894.41;4893232;28;96858;-51
2023/05/28 00:54:35;;;;;;;4.77;3.20;;;;;;;13.48;49.49;101892.53;4892621;28;97345;-51
2023/05/28 00:57:01;;;;;;;3.17;2.90;;;;;;;13.42;49.84;101900.00;4892664;28;97903;-52
2023/05/28 00:59:27;;;;;;;3.63;3.10;;;;;;;13.40;49.62;101891.44;4893656;28;97166;-50
2023/05/28 01:01:53;;;;;;;5.97;3.00;;;;;;;13.37;50.00;101894.38;4892522;28;96736;-52
2023/05/28 01:04:21;;;;;;;4.97;2.80;;;;;;;13.30;50.25;101892.03;4893027;28;97049;-52
2023/05/28 01:06:48;;;;;;;9.53;3.40;;;;;;;13.28;50.06;101897.28;4892896;28;97605;-52
2023/05/28 01:09:13;;;;;;;4.53;2.90;;;;;;;13.21;49.98;101897.69;4893961;28;97105;-52
2023/05/28 01:11:42;;;;;;;3.20;2.77;;;;;;;13.14;50.07;101898.06;4888104;28;97130;-52
2023/05/28 01:14:08;;;;;;;4.83;3.33;;;;;;;13.04;50.31;101905.66;4889815;28;96672;-52
2023/05/28 01:16:34;;;;;;;3.20;2.67;;;;;;;12.98;50.22;101895.78;4890348;28;97760;-52
2023/05/28 01:19:01;;;;;;;3.60;3.27;;;;;;;12.97;50.22;101891.50;4889352;28;96932;-51
2023/05/28 01:21:27;;;;;;;5.10;3.70;;;;;;;12.97;50.29;101892.28;4891388;28;96795;-50
2023/05/28 01:23:56;;;;;;;6.37;3.30;;;;;;;12.95;50.34;101886.47;4894416;28;97111;-50
2023/05/28 01:26:22;;;;;;;4.87;3.67;;;;;;;12.94;50.38;101892.44;4891919;28;97415;-51
2023/05/28 01:28:48;;;;;;;7.63;3.27;;;;;;;12.93;50.41;101883.38;4891175;28;97125;-51
2023/05/28 01:31:15;;;;;;;3.10;2.70;;;;;;;12.91;50.61;101883.13;4892817;28;97258;-51
2023/05/28 01:33:41;;;;;;;5.03;3.20;;;;;;;12.90;50.29;101880.84;4894598;28;97197;-52
2023/05/28 01:36:14;;;;;;;4.33;3.10;;;;;;;12.89;50.57;101885.59;4891363;28;97331;-52
2023/05/28 01:38:43;;;;;;;5.77;3.10;;;;;;;12.82;50.50;101874.94;4892424;28;97348;-52
2023/05/28 01:41:09;;;;;;;3.10;2.77;;;;;;;12.78;50.54;101877.13;4892843;28;97013;-51
2023/05/28 01:43:35;;;;;;;3.00;2.63;;;;;;;12.73;50.74;101881.31;4892632;28;96676;-52
2023/05/28 01:46:01;;;;;;;3.83;3.33;;;;;;;12.69;50.76;101871.69;4892320;28;96871;-52
2023/05/28 01:48:27;;;;;;;7.07;3.27;;;;;;;12.66;50.69;101875.44;4891094;28;97056;-52
2023/05/28 01:50:54;;;;;;;4.73;3.10;;;;;;;12.62;51.02;101875.59;4893909;28;97204;-51
2023/05/28 01:53:19;;;;;;;4.33;3.03;;;;;;;12.57;50.87;101878.28;4890095;28;97417;-52
2023/05/28 01:55:44;;;;;;;3.93;3.17;;;;;;;12.59;50.86;101882.09;4892545;28;96958;-51
2023/05/28 01:58:10;;;;;;;5.47;3.20;;;;;;;12.55;50.92;101866.97;4890247;28;97700;-52
2023/05/28 02:00:46;;;;;;;5.60;3.20;;;;;;;12.55;51.43;101867.72;4892274;28;97092;-52
2023/05/28 02:03:12;;;;;;;4.00;3.37;;;;;;;12.52;50.87;101876.19;4891727;28;96983;-52
2023/05/28 02:05:37;;;;;;;3.60;3.30;;;;;;;12.47;51.03;101876.88;4888720;28;97500;-50
2023/05/28 02:08:03;;;;;;;4.70;3.10;;;;;;;12.44;51.16;101877.81;4891112;28;97212;-51
2023/05/28 02:10:28;;;;;;;3.60;2.90;;;;;;;12.42;51.10;101883.03;4894177;28;97247;-51
2023/05/28 02:12:53;;;;;;;2.90;2.63;;;;;;;12.35;51.15;101881.41;4894670;28;97252;-52
2023/05/28 02:15:21;;;;;;;4.07;2.90;;;;;;;12.33;51.07;101878.38;4892795;28;98763;-52
2023/05/28 02:17:46;;;;;;;3.83;2.80;;;;;;;12.32;51.01;101876.84;4892722;28;97583;-52
2023/05/28 02:20:12;;;;;;;4.33;3.60;;;;;;;12.28;51.10;101870.75;4897632;28;97019;-51
2023/05/28 02:22:38;;;;;;;7.03;3.67;;;;;;;12.22;51.27;101880.16;4895129;28;96696;-50
2023/05/28 02:25:04;;;;;;;4.57;3.10;;;;;;;12.17;51.53;101878.06;4892527;28;97834;-49
2023/05/28 02:27:29;;;;;;;3.10;2.80;;;;;;;12.14;51.44;101874.25;4894723;28;97640;-52
2023/05/28 02:29:54;;;;;;;4.20;3.43;;;;;;;12.14;51.59;101870.75;4893182;28;96896;-52
2023/05/28 02:32:20;;;;;;;4.13;3.50;;;;;;;12.14;51.54;101870.75;4896086;28;97002;-51
2023/05/28 02:34:45;;;;;;;3.13;2.80;;;;;;;12.08;51.36;101864.34;4893151;28;97382;-52
2023/05/28 02:37:10;;;;;;;3.27;2.77;;;;;;;12.08;51.51;101883.66;4893641;28;97276;-50
2023/05/28 02:39:35;;;;;;;3.03;2.60;;;;;;;12.04;51.57;101870.81;4896569;28;96886;-51
2023/05/28 02:42:01;;;;;;;5.47;3.07;;;;;;;12.04;51.62;101873.56;4895144;28;96939;-51
2023/05/28 02:44:26;;;;;;;3.67;3.17;;;;;;;12.02;51.58;101864.25;4894744;28;97868;-52
2023/05/28 02:46:51;;;;;;;2.90;2.60;;;;;;;11.99;51.47;101871.47;4895755;28;97749;-51
2023/05/28 02:49:17;;;;;;;3.17;2.80;;;;;;;11.96;51.63;101866.91;4892804;28;97205;-50
2023/05/28 02:51:42;;;;;;;3.33;3.03;;;;;;;11.94;51.81;101857.56;4892659;28;97381;-51
2023/05/28 02:54:07;;;;;;;3.40;3.20;;;;;;;11.90;51.82;101860.50;4893932;28;98828;-50
2023/05/28 02:56:33;;;;;;;9.10;3.63;;;;;;;11.92;51.89;101868.31;4895804;28;100148;-52
2023/05/28 02:58:58;;;;;;;4.03;2.80;;;;;;;11.93;51.96;101867.84;4894628;28;97452;-52
2023/05/28 03:01:23;;;;;;;5.90;3.50;;;;;;;11.93;51.82;101856.81;4897044;28;97062;-50
2023/05/28 03:03:49;;;;;;;3.33;3.03;;;;;;;11.92;51.88;101857.28;4896481;28;97141;-51
2023/05/28 03:06:14;;;;;;;3.47;2.80;;;;;;;11.90;51.72;101852.22;4897209;28;102341;-50
2023/05/28 03:08:40;;;;;;;4.63;3.03;;;;;;;11.86;51.65;101861.94;4895299;28;96767;-52
2023/05/28 03:11:05;;;;;;;4.17;3.47;;;;;;;11.76;51.70;101869.50;4893835;28;97033;-50
2023/05/28 03:13:30;;;;;;;2.60;2.40;;;;;;;11.67;51.61;101861.28;4892486;28;101497;-52
2023/05/28 03:15:56;;;;;;;2.57;2.37;;;;;;;11.61;51.91;101857.63;4891357;28;109378;-51
2023/05/28 03:18:21;;;;;;;3.47;2.97;;;;;;;11.59;51.88;101859.34;4894364;28;96963;-51
2023/05/28 03:20:47;;;;;;;3.43;2.87;;;;;;;11.54;51.96;101863.50;4893981;28;97088;-50
2023/05/28 03:23:13;;;;;;;6.90;3.10;;;;;;;11.50;52.16;101862.91;4894920;28;101049;-51
2023/05/28 03:25:38;;;;;;;3.77;2.57;;;;;;;11.52;52.11;101868.72;4895042;28;108239;-52
2023/05/28 03:28:03;;;;;;;4.03;2.83;;;;;;;11.52;52.18;101867.94;4894075;28;96991;-52
2023/05/28 03:30:28;;;;;;;3.37;2.67;;;;;;;11.52;52.11;101865.97;4895322;28;97094;-51
2023/05/28 03:32:54;;;;;;;3.47;2.97;;;;;;;11.52;52.04;101865.19;4892783;28;104612;-51
2023/05/28 03:35:19;;;;;;;3.67;2.83;;;;;;;11.48;51.92;101862.63;4893010;28;97315;-52
2023/05/28 03:37:45;;;;;;;2.93;2.57;;;;;;;11.50;52.02;101865.66;4893133;28;96937;-52
2023/05/28 03:40:11;;;;;;;2.67;2.47;;;;;;;11.48;52.03;101862.63;4893988;28;97369;-52
2023/05/28 03:42:38;;;;;;;4.43;2.87;;;;;;;11.43;52.04;101866.00;4893174;28;97373;-51
2023/05/28 03:45:04;;;;;;;3.50;2.80;;;;;;;11.39;52.13;101870.94;4892771;28;97141;-52
2023/05/28 03:47:31;;;;;;;2.97;2.73;;;;;;;11.33;52.12;101864.56;4896656;28;96948;-52
2023/05/28 03:49:58;;;;;;;2.90;2.40;;;;;;;11.26;52.20;101871.16;4892045;28;97481;-51
2023/05/28 03:52:24;;;;;;;3.50;2.77;;;;;;;11.20;52.42;101886.78;4892076;28;98617;-52
2023/05/28 03:54:49;;;;;;;3.10;2.80;;;;;;;11.19;52.44;101876.25;4895852;28;96947;-52
2023/05/28 03:57:15;;;;;;;4.80;3.23;;;;;;;11.22;52.34;101875.31;4894202;28;96793;-52
2023/05/28 03:59:40;;;;;;;3.73;2.70;;;;;;;11.22;52.54;101875.31;4891737;28;98177;-52
2023/05/28 04:02:06;;;;;;;4.23;2.40;;;;;;;11.23;52.65;101876.84;4892186;28;97383;-51
2023/05/28 04:04:31;;;;;;;3.23;2.77;;;;;;;11.25;52.75;101883.41;4895027;28;97320;-52
2023/05/28 04:06:56;;;;;;;3.40;2.60;;;;;;;11.32;52.61;101874.03;4892113;28;97357;-49
2023/05/28 04:09:22;;;;;;;2.43;2.23;;;;;;;11.37;52.59;101883.66;4892952;28;97353;-50
2023/05/28 04:11:47;;;;;;;3.10;2.53;;;;;;;11.40;52.55;101877.22;4893481;28;96892;-52
2023/05/28 04:14:13;;;;;;;2.90;2.57;;;;;;;11.43;52.56;101874.28;4893732;28;97012;-50
2023/05/28 04:16:38;;;;;;;3.00;2.77;;;;;;;11.44;52.57;101878.56;4895315;28;96915;-52
2023/05/28 04:19:04;;;;;;;2.53;2.23;;;;;;;11.45;52.49;101871.81;4893490;28;97247;-52
2023/05/28 04:21:30;;;;;;;3.43;2.53;;;;;;;11.47;52.63;101880.38;4894472;28;97149;-52
2023/05/28 04:23:55;;;;;;;4.00;3.00;;;;;;;11.46;52.86;101880.84;4898517;28;98172;-49
2023/05/28 04:26:22;;;;;;;2.60;2.40;;;;;;;11.48;53.00;101884.66;4894517;28;96789;-51
2023/05/28 04:28:48;;;;;;;2.60;2.40;;;;;;;11.52;52.86;101876.22;4893000;28;97349;-51
2023/05/28 04:31:13;;;;;;;2.40;2.20;;;;;;;11.55;52.87;101886.31;4891658;28;97485;-52
2023/05/28 04:33:38;;;;;;;3.57;2.83;;;;;;;11.59;53.00;101882.16;4895645;28;97552;-52
2023/05/28 04:36:04;;;;;;;2.60;2.13;;;;;;;11.64;52.74;101889.03;4894578;28;96627;-50
2023/05/28 04:38:31;;;;;;;3.03;2.60;;;;;;;11.66;52.84;101892.84;4896585;28;96738;-51
2023/05/28 04:41:00;;;;;;;2.60;2.40;;;;;;;11.68;52.78;101893.16;4891496;28;98296;-51
2023/05/28 04:43:26;;;;;;;2.40;2.17;;;;;;;11.72;52.96;101890.22;4890287;28;97238;-52
2023/05/28 04:45:53;;;;;;;3.20;2.67;;;;;;;11.75;52.94;101901.03;4894869;28;96985;-52
2023/05/28 04:48:18;;;;;;;2.37;2.17;;;;;;;11.78;52.99;101900.13;4891906;28;97056;-51
2023/05/28 04:50:44;;;;;;;2.50;2.30;;;;;;;11.81;53.08;101898.44;4893741;28;97098;-52
2023/05/28 04:53:09;;;;;;;8.07;2.50;;;;;;;11.86;52.89;101884.75;4892702;28;98744;-52
2023/05/28 04:55:34;;;;;;;3.00;2.30;;;;;;;11.91;52.81;101875.81;4894351;28;97226;-52
2023/05/28 04:58:00;;;;;;;3.80;2.47;;;;;;;11.95;53.02;101875.63;4894075;28;96777;-52
2023/05/28 05:00:26;;;;;;;3.47;2.27;;;;;;;12.01;53.18;101884.78;4894059;28;97985;-50
2023/05/28 05:02:52;;;;;;;3.23;2.47;;;;;;;12.04;53.04;101881.84;4894236;28;97701;-52
2023/05/28 05:05:18;;;;;;;2.20;2.00;;;;;;;12.10;53.06;101878.44;4892239;28;97165;-52
2023/05/28 05:07:44;;;;;;;2.60;2.40;;;;;;;12.15;53.17;101888.78;4893503;28;96733;-52
2023/05/28 05:10:10;;;;;;;2.73;2.53;;;;;;;12.17;53.09;101881.56;4892100;28;97390;-51
2023/05/28 05:12:36;;;;;;;2.47;2.27;;;;;;;12.26;53.23;101883.50;4894462;28;97372;-51
2023/05/28 05:15:04;;;;;;;2.67;2.43;;;;;;;12.34;53.18;101884.66;4891707;28;97326;-50
2023/05/28 05:17:30;;;;;;;3.67;2.57;;;;;;;12.42;53.16;101889.34;4893426;28;96988;-51
2023/05/28 05:19:56;;;;;;;2.43;2.33;;;;;;;12.49;53.21;101913.03;4892240;28;96953;-52
2023/05/28 05:22:22;;;;;;;2.43;2.23;;;;;;;12.56;53.47;101885.03;4893922;28;97212;-51
2023/05/28 05:24:50;;;;;;;3.53;2.10;;;;;;;12.62;53.43;101883.88;4893015;28;97291;-52
2023/05/28 05:27:16;;;;;;;2.70;2.20;;;;;;;12.69;53.65;101882.75;4891521;28;96796;-51
2023/05/28 05:29:41;;;;;;;2.10;1.90;;;;;;;12.78;53.53;101886.19;4891504;28;97093;-52
2023/05/28 05:32:09;;;;;;;2.10;1.90;;;;;;;12.90;53.65;101889.13;4890949;28;97229;-51
2023/05/28 05:34:35;;;;;;;2.70;2.50;;;;;;;12.98;53.55;101885.50;4892615;28;97114;-52
2023/05/28 05:37:01;;;;;;;2.87;2.37;;;;;;;13.07;53.56;101885.41;4892187;28;97264;-52
2023/05/28 05:39:26;;;;;;;2.40;2.20;;;;;;;13.21;53.51;101879.09;4894780;28;96854;-52
2023/05/28 05:41:52;;;;;;;2.50;2.30;;;;;;;13.33;53.58;101885.53;4892317;28;97086;-52
2023/05/28 05:44:17;;;;;;;6.27;2.77;;;;;;;13.42;53.72;101888.94;4894631;28;96795;-52
2023/05/28 05:46:42;;;;;;;4.83;3.10;;;;;;;13.54;53.97;101889.88;4897320;28;96774;-52
2023/05/28 05:49:09;;;;;;;4.40;2.40;;;;;;;13.63;53.62;101886.22;4893950;28;97824;-52
2023/05/28 05:51:35;;;;;;;2.97;2.40;;;;;;;13.78;53.60;101897.97;4898796;28;97379;-51
2023/05/28 05:54:01;;;;;;;3.03;2.53;;;;;;;13.87;53.62;101886.75;4895134;28;96627;-52
2023/05/28 05:56:27;;;;;;;2.33;2.17;;;;;;;13.99;53.75;101891.16;4896350;28;96825;-52
2023/05/28 05:58:52;;;;;;;3.47;2.10;;;;;;;14.13;53.67;101885.53;4896800;28;97407;-52
2023/05/28 06:01:17;;;;;;;3.50;2.90;;;;;;;14.27;53.80;101883.91;4894424;28;99384;-51
2023/05/28 06:03:43;;;;;;;3.57;2.53;;;;;;;14.41;53.48;101883.09;4892593;28;96669;-52
2023/05/28 06:06:09;;;;;;;3.30;2.60;;;;;;;14.56;53.51;101880.97;4894068;28;96861;-52
2023/05/28 06:08:35;;;;;;;4.07;2.70;;;;;;;14.70;53.55;101888.38;4895469;28;97044;-52
2023/05/28 06:11:00;;;;;;;3.10;2.30;;;;;;;14.84;53.52;101893.06;4895773;28;97644;-50
2023/05/28 06:13:26;;;;;;;4.17;2.70;;;;;;;14.97;53.27;101896.19;4894619;28;97156;-51
2023/05/28 06:15:51;;;;;;;15.70;3.00;;;;;;;15.08;53.23;101887.19;4894815;28;97426;-51
2023/05/28 06:18:17;;;;;;;4.60;2.40;;;;;;;15.22;53.15;101888.28;4891738;28;98612;-52
2023/05/28 06:20:42;;;;;;;2.63;2.20;;;;;;;15.31;53.02;101901.97;4897714;28;101335;-52
2023/05/28 06:23:07;;;;;;;4.67;2.23;;;;;;;15.48;52.95;101894.53;4896105;28;98438;-52
2023/05/28 06:25:35;;;;;;;4.07;2.47;;;;;;;15.60;53.03;101894.06;4896256;28;96754;-51
2023/05/28 06:28:00;;;;;;;3.70;2.73;;;;;;;15.73;53.02;101885.28;4893734;28;98941;-52
2023/05/28 06:30:26;;;;;;;2.70;2.50;;;;;;;15.85;52.97;101888.88;4894707;28;97569;-52
2023/05/28 06:32:51;;;;;;;3.00;2.70;;;;;;;15.99;52.84;101885.91;4897862;28;97156;-52
2023/05/28 06:35:16;;;;;;;3.60;2.90;;;;;;;16.13;52.76;101887.72;4896463;28;97239;-51
2023/05/28 06:37:42;;;;;;;10.03;2.90;;;;;;;16.28;52.46;101884.72;4893579;28;96823;-52
2023/05/28 06:40:10;;;;;;;3.33;2.73;;;;;;;16.43;52.23;101883.22;4893876;28;105115;-52
2023/05/28 06:42:35;;;;;;;3.03;2.33;;;;;;;16.58;52.16;101879.50;4893933;28;97253;-51
2023/05/28 06:45:01;;;;;;;3.20;2.57;;;;;;;16.72;52.21;101886.81;4897719;28;96965;-52
2023/05/28 06:47:27;;;;;;;2.43;2.00;;;;;;;16.83;51.91;101881.25;4893491;28;97447;-52
2023/05/28 06:49:53;;;;;;;5.80;3.07;;;;;;;16.98;51.49;101881.75;4894895;28;97847;-52
2023/05/28 06:52:19;;;;;;;2.70;2.23;;;;;;;17.19;51.36;101882.97;4897315;28;97238;-53
2023/05/28 06:54:44;;;;;;;2.33;2.13;;;;;;;17.35;51.20;101879.41;4892784;28;97078;-51
2023/05/28 06:57:10;;;;;;;3.00;2.33;;;;;;;17.50;51.18;101882.69;4891087;28;97000;-50
2023/05/28 06:59:35;;;;;;;2.77;2.10;;;;;;;17.59;51.04;101879.63;4894976;28;97896;-52
2023/05/28 07:02:00;;;;;;;5.27;2.50;;;;;;;17.72;50.62;101882.59;4894800;28;96960;-50
2023/05/28 07:04:26;;;;;;;2.40;2.30;;;;;;;17.89;50.39;101879.75;4893915;28;98785;-52
2023/05/28 07:06:53;;;;;;;2.40;2.20;;;;;;;18.11;50.27;101876.84;4894426;28;97336;-51
2023/05/28 07:09:18;;;;;;;3.57;1.90;;;;;;;18.29;50.17;101878.25;4894703;28;98713;-52
2023/05/28 07:11:44;;;;;;;4.40;2.57;;;;;;;18.44;49.99;101873.88;4896168;28;96571;-52
2023/05/28 07:14:09;;;;;;;4.20;2.70;;;;;;;18.61;49.79;101868.94;4894138;28;96963;-52
2023/05/28 07:16:34;;;;;;;2.37;2.17;;;;;;;18.76;49.42;101871.38;4893621;28;97150;-53
2023/05/28 07:19:00;;;;;;;2.20;2.00;;;;;;;18.91;49.32;101877.31;4892549;28;98363;-52
2023/05/28 07:21:25;;;;;;;5.07;2.63;;;;;;;19.03;49.14;101878.69;4893341;28;98203;-52
2023/05/28 07:23:50;;;;;;;2.23;2.03;;;;;;;19.16;49.15;101878.06;4894825;28;97228;-53
2023/05/28 07:26:16;;;;;;;4.73;2.20;;;;;;;19.25;48.57;101874.94;4908909;28;99137;-53
2023/05/28 07:28:41;;;;;;;2.53;2.17;;;;;;;19.38;48.52;101875.84;4901271;28;97771;-53
2023/05/28 07:31:06;;;;;;;2.30;2.10;;;;;;;19.53;48.29;101874.66;4897151;28;97470;-52
2023/05/28 07:33:32;;;;;;;2.90;2.10;;;;;;;19.66;47.98;101878.28;4893864;28;97085;-51
2023/05/28 07:35:57;;;;;;;5.10;1.93;;;;;;;19.82;47.82;101880.13;4894942;28;97122;-52
2023/05/28 07:38:22;;;;;;;2.80;2.10;;;;;;;19.98;47.44;101870.03;4892461;28;105661;-52
2023/05/28 07:40:49;;;;;;;2.63;2.20;;;;;;;20.07;47.46;101872.44;4893988;28;97075;-52
2023/05/28 07:43:14;;;;;;;3.30;1.80;;;;;;;20.18;46.86;101872.28;4891605;28;97344;-52
2023/05/28 07:45:40;;;;;;;2.03;1.67;;;;;;;20.31;46.61;101877.97;4891805;28;96831;-53
2023/05/28 07:48:05;;;;;;;2.20;2.00;;;;;;;20.39;46.56;101878.84;4888493;28;97690;-52
2023/05/28 07:50:30;;;;;;;3.37;1.70;;;;;;;20.48;46.59;101869.31;4896302;28;97039;-52
2023/05/28 07:52:56;;;;;;;3.00;1.80;;;;;;;20.51;46.04;101871.78;4893424;28;97335;-53
2023/05/28 07:55:21;;;;;;;2.40;1.90;;;;;;;20.61;45.82;101875.72;4891225;28;99417;-53
2023/05/28 07:57:46;;;;;;;2.40;2.00;;;;;;;20.74;46.07;101877.78;4894593;28;99435;-52
2023/05/28 08:00:15;;;;;;;2.40;1.80;;;;;;;20.88;46.06;101873.75;4892376;28;96964;-51
2023/05/28 08:02:42;;;;;;;3.40;1.83;;;;;;;20.96;45.45;101871.81;4895055;28;96824;-50
2023/05/28 08:05:08;;;;;;;2.80;1.70;;;;;;;21.08;45.06;101878.72;4892720;28;97648;-51
2023/05/28 08:07:34;;;;;;;2.93;1.87;;;;;;;21.21;45.08;101880.81;4892319;28;97667;-52
2023/05/28 08:10:00;;;;;;;1.70;1.60;;;;;;;21.36;44.61;101873.38;4895184;28;97148;-53
2023/05/28 08:12:25;;;;;;;3.70;1.60;;;;;;;21.47;44.49;101870.34;4894338;28;97841;-50
2023/05/28 08:14:51;;;;;;;3.50;1.97;;;;;;;21.60;43.92;101869.59;4892540;28;98557;-53
2023/05/28 08:17:16;;;;;;;1.97;1.80;;;;;;;21.67;43.78;101871.72;4893613;28;97279;-53
2023/05/28 08:19:42;;;;;;;5.13;1.50;;;;;;;21.78;43.64;101871.50;4892956;28;97806;-52
2023/05/28 08:22:08;;;;;;;2.13;1.53;;;;;;;21.89;43.20;101868.50;4890642;28;97015;-52
2023/05/28 08:24:33;;;;;;;3.90;2.37;;;;;;;21.99;43.09;101874.41;4892914;28;97529;-52
2023/05/28 08:26:59;;;;;;;2.50;1.43;;;;;;;22.04;42.90;101876.34;4891832;28;96759;-51
2023/05/28 08:29:24;;;;;;;3.33;2.00;;;;;;;22.16;43.04;101867.13;4892306;28;97547;-52
2023/05/28 08:31:50;;;;;;;3.83;1.87;;;;;;;22.36;42.70;101868.47;4892251;28;102610;-53
2023/05/28 08:34:16;;;;;;;3.20;1.97;;;;;;;22.47;42.34;101873.81;4891259;28;96836;-52
2023/05/28 08:36:41;;;;;;;3.33;2.00;;;;;;;22.62;42.18;101873.97;4891778;28;98446;-52
2023/05/28 08:39:08;;;;;;;4.33;1.80;;;;;;;22.77;41.98;101874.09;4892943;28;97133;-52
2023/05/28 08:41:34;;;;;;;3.13;1.80;;;;;;;22.88;41.58;101871.00;4893002;28;97030;-52
2023/05/28 08:43:59;;;;;;;4.33;2.50;;;;;;;22.99;41.38;101867.91;4890996;28;97106;-52
2023/05/28 08:46:25;;;;;;;1.40;1.30;;;;;;;23.04;41.60;101871.88;4891720;28;96821;-53
2023/05/28 08:48:51;;;;;;;2.80;1.90;;;;;;;23.09;41.70;101871.72;4890122;28;96806;-51
2023/05/28 08:51:20;;;;;;;2.30;1.70;;;;;;;23.25;41.63;101866.19;4892167;28;96896;-50
2023/05/28 08:53:47;;;;;;;4.40;1.80;;;;;;;23.40;41.51;101864.25;4892403;28;97351;-52
2023/05/28 08:56:13;;;;;;;2.43;1.87;;;;;;;23.47;40.58;101876.84;4894495;28;96942;-52
2023/05/28 08:58:38;;;;;;;2.27;1.80;;;;;;;23.49;40.57;101877.81;4891450;28;97179;-52
2023/05/28 09:01:08;;;;;;;2.80;1.90;;;;;;;23.50;39.05;101876.47;4894394;28;97137;-52
2023/05/28 09:03:34;;;;;;;2.63;1.90;;;;;;;23.57;40.52;101872.97;4892620;28;96995;-52
2023/05/28 09:06:01;;;;;;;2.20;1.93;;;;;;;23.69;40.02;101871.34;4891812;28;97300;-52
2023/05/28 09:08:26;;;;;;;2.70;1.87;;;;;;;23.73;39.60;101866.13;4892808;28;97382;-52
2023/05/28 09:10:55;;;;;;;2.97;1.93;;;;;;;23.70;38.89;101867.22;4893264;28;97124;-51
2023/05/28 09:13:21;;;;;;;4.20;2.17;;;;;;;23.64;39.30;101863.06;4890240;28;97758;-52
2023/05/28 09:15:53;;;;;;;3.67;1.90;;;;;;;23.58;38.63;101859.69;4895489;28;98343;-52
2023/05/28 09:18:20;;;;;;;3.37;2.40;;;;;;;23.61;39.53;101859.31;4891372;28;96773;-52
2023/05/28 09:20:47;;;;;;;2.30;1.80;;;;;;;23.72;39.25;101855.44;4893307;28;97054;-52
2023/05/28 09:23:16;;;;;;;1.90;1.80;;;;;;;23.85;38.97;101852.50;4891806;28;97913;-52
2023/05/28 09:25:44;;;;;;;5.60;2.20;;;;;;;23.98;38.90;101852.34;4893354;28;97141;-50
2023/05/28 09:28:13;;;;;;;5.40;1.90;;;;;;;24.09;39.19;101846.38;4893638;28;97259;-52
2023/05/28 09:30:39;;;;;;;2.53;1.73;;;;;;;24.17;38.99;101843.59;4893601;28;97138;-52
2023/05/28 09:33:07;;;;;;;2.47;1.67;;;;;;;24.28;38.85;101857.31;4891503;28;97973;-51
2023/05/28 09:35:33;;;;;;;1.93;1.60;;;;;;;24.38;39.02;101847.00;4894176;28;98500;-52
2023/05/28 09:38:10;;;;;;;3.37;1.60;;;;;;;24.46;37.00;101847.78;4893338;28;97202;-52
2023/05/28 09:40:43;;;;;;;2.90;1.90;;;;;;;24.41;38.16;101854.34;4890462;28;97072;-52
2023/05/28 09:43:09;;;;;;;2.43;1.70;;;;;;;24.36;38.71;101847.56;4889048;28;97253;-53
2023/05/28 09:45:35;;;;;;;4.83;2.00;;;;;;;24.33;38.30;101850.78;4894250;28;96808;-53
2023/05/28 09:48:01;;;;;;;6.97;2.10;;;;;;;24.25;38.22;101844.34;4891974;28;97382;-52
2023/05/28 09:50:27;;;;;;;4.50;2.37;;;;;;;24.24;38.73;101842.88;4891791;28;96719;-52
2023/05/28 09:52:55;;;;;;;2.60;1.67;;;;;;;24.27;38.82;101842.50;4891242;28;97027;-51
2023/05/28 09:55:23;;;;;;;3.20;2.23;;;;;;;24.30;38.45;101841.38;4892756;28;97615;-51
2023/05/28 09:58:05;;;;;;;2.03;1.50;;;;;;;24.28;37.17;101852.44;4892884;28;96830;-52
2023/05/28 10:00:46;;;;;;;3.20;1.80;;;;;;;24.21;37.66;101841.94;4891637;28;96909;-52
2023/05/28 10:03:18;;;;;;;3.40;2.00;;;;;;;24.26;38.03;101851.50;4891613;28;97423;-52
2023/05/28 10:05:48;;;;;;;2.07;1.90;;;;;;;24.39;38.07;101845.72;4896245;28;98477;-52
2023/05/28 10:08:16;;;;;;;3.77;2.50;;;;;;;24.51;37.90;101844.00;4890608;28;97168;-52
2023/05/28 10:10:45;;;;;;;3.63;2.07;;;;;;;24.63;37.62;101850.03;4892709;28;96780;-52
2023/05/28 10:13:12;;;;;;;3.37;1.83;;;;;;;24.78;37.29;101839.56;4893401;28;98115;-53
2023/05/28 10:15:38;;;;;;;3.00;1.93;;;;;;;24.93;37.08;101828.28;4889458;28;97152;-51
2023/05/28 10:18:06;;;;;;;4.30;1.90;;;;;;;24.98;36.90;101832.97;4891744;28;97254;-50
2023/05/28 10:20:31;;;;;;;4.17;1.90;;;;;;;25.03;37.11;101840.44;4893898;28;97163;-52
2023/05/28 10:22:57;;;;;;;2.47;1.77;;;;;;;24.93;36.64;101827.50;4893245;28;97157;-52
2023/05/28 10:25:23;;;;;;;1.60;1.50;;;;;;;24.90;36.59;101828.66;4891917;28;97116;-52
2023/05/28 10:27:49;;;;;;;4.07;2.27;;;;;;;24.85;36.54;101830.34;4894075;28;97294;-51
2023/05/28 10:30:36;;;;;;;2.27;1.93;;;;;;;24.96;35.54;101829.97;4891038;28;97304;-50
2023/05/28 10:33:09;;;;;;;1.80;1.60;;;;;;;25.17;35.72;101827.66;4896235;28;97467;-51
2023/05/28 10:35:49;;;;;;;2.83;1.80;;;;;;;25.33;36.38;101816.34;4893192;28;97371;-52
2023/05/28 10:38:15;;;;;;;2.13;1.73;;;;;;;25.53;36.19;101826.63;4894064;28;97132;-52
2023/05/28 10:40:40;;;;;;;3.00;2.70;;;;;;;25.69;35.98;101816.78;4895132;28;97435;-51
2023/05/28 10:43:25;;;;;;;6.10;2.50;;;;;;;25.76;35.73;101821.63;4896193;28;97797;-51
2023/05/28 10:45:55;;;;;;;2.93;1.87;;;;;;;25.86;34.32;101814.09;4896014;28;98209;-51
2023/05/28 10:48:21;;;;;;;4.10;2.10;;;;;;;25.95;35.16;101825.47;4895522;28;96624;-51
2023/05/28 10:50:58;;;;;;;2.70;1.90;;;;;;;25.90;33.26;101815.19;4896154;28;96751;-51
2023/05/28 10:53:25;;;;;;;2.90;1.83;;;;;;;25.95;35.29;101819.09;4896986;28;97169;-51
2023/05/28 10:55:53;;;;;;;2.00;1.60;;;;;;;26.11;35.27;101817.72;4897299;28;98387;-51
2023/05/28 10:58:35;;;;;;;2.20;2.00;;;;;;;26.25;33.69;101813.28;4894839;28;97591;-51
2023/05/28 11:01:05;;;;;;;2.50;1.80;;;;;;;26.30;34.46;101811.56;4894939;28;97220;-51
2023/05/28 11:03:42;;;;;;;2.77;1.80;;;;;;;26.35;33.91;101814.16;4895516;28;97111;-51
2023/05/28 11:06:08;;;;;;;4.37;2.20;;;;;;;26.32;34.39;101817.38;4894876;28;97362;-51
2023/05/28 11:08:47;;;;;;;2.73;2.00;;;;;;;26.26;33.41;101809.13;4894376;28;97089;-51
2023/05/28 11:11:14;;;;;;;3.60;2.33;;;;;;;26.26;34.33;101816.84;4895301;28;96948;-51
2023/05/28 11:13:44;;;;;;;4.17;2.00;;;;;;;26.22;33.76;101810.84;4893185;28;97074;-51
2023/05/28 11:16:11;;;;;;;2.03;1.77;;;;;;;26.33;34.38;101810.41;4894813;28;97170;-51
2023/05/28 11:18:37;;;;;;;2.10;1.90;;;;;;;26.43;33.96;101811.28;4892728;28;97500;-51
2023/05/28 11:21:08;;;;;;;3.50;2.33;;;;;;;26.51;33.44;101811.97;4894113;28;96930;-51